sensor_id;sensor_type;location;lat;lon;timestamp;pressure;altitude;pressure_sealevel;temperature;humidity
64908;BME280;69061;52.236;5.188;2023-04-26T00:01:24;101915.78;;;7.31;77.68
64908;BME280;69061;52.236;5.188;2023-04-26T00:03:51;101911.25;;;7.22;77.21
64908;BME280;69061;52.236;5.188;2023-04-26T00:06:18;101911.44;;;7.17;77.25
64908;BME280;69061;52.236;5.188;2023-04-26T00:08:44;101921.53;;;7.15;76.86
64908;BME280;69061;52.236;5.188;2023-04-26T00:11:11;101913.31;;;7.08;77.45
64908;BME280;69061;52.236;5.188;2023-04-26T00:13:37;101921.72;;;7.01;77.74
64908;BME280;69061;52.236;5.188;2023-04-26T00:16:06;101911.28;;;6.96;78.12
64908;BME280;69061;52.236;5.188;2023-04-26T00:18:33;101915.47;;;6.88;77.74
64908;BME280;69061;52.236;5.188;2023-04-26T00:20:59;101913.75;;;6.84;78.15
64908;BME280;69061;52.236;5.188;2023-04-26T00:23:26;101922.59;;;6.79;78.17
64908;BME280;69061;52.236;5.188;2023-04-26T00:25:52;101917.50;;;6.74;78.05
64908;BME280;69061;52.236;5.188;2023-04-26T00:28:19;101917.81;;;6.72;79.26
64908;BME280;69061;52.236;5.188;2023-04-26T00:30:46;101907.53;;;6.71;78.28
64908;BME280;69061;52.236;5.188;2023-04-26T00:33:14;101902.88;;;6.68;77.69
64908;BME280;69061;52.236;5.188;2023-04-26T00:35:41;101903.81;;;6.63;78.23
64908;BME280;69061;52.236;5.188;2023-04-26T00:38:07;101899.75;;;6.57;78.43
64908;BME280;69061;52.236;5.188;2023-04-26T00:40:34;101904.84;;;6.53;78.68
64908;BME280;69061;52.236;5.188;2023-04-26T00:43:02;101896.91;;;6.45;78.35
64908;BME280;69061;52.236;5.188;2023-04-26T00:45:29;101897.22;;;6.43;78.51
64908;BME280;69061;52.236;5.188;2023-04-26T00:47:55;101902.66;;;6.38;79.10
64908;BME280;69061;52.236;5.188;2023-04-26T00:50:23;101901.22;;;6.32;79.50
64908;BME280;69061;52.236;5.188;2023-04-26T00:52:54;101899.22;;;6.29;78.52
64908;BME280;69061;52.236;5.188;2023-04-26T00:55:22;101901.22;;;6.32;79.09
64908;BME280;69061;52.236;5.188;2023-04-26T00:57:51;101892.53;;;6.31;79.20
64908;BME280;69061;52.236;5.188;2023-04-26T01:00:17;101902.66;;;6.29;80.77
64908;BME280;69061;52.236;5.188;2023-04-26T01:02:44;101901.53;;;6.30;80.68
64908;BME280;69061;52.236;5.188;2023-04-26T01:05:11;101899.84;;;6.26;79.07
64908;BME280;69061;52.236;5.188;2023-04-26T01:07:39;101909.13;;;6.23;79.24
64908;BME280;69061;52.236;5.188;2023-04-26T01:10:06;101899.34;;;6.23;80.32
64908;BME280;69061;52.236;5.188;2023-04-26T01:12:34;101895.94;;;6.23;79.12
64908;BME280;69061;52.236;5.188;2023-04-26T01:15:02;101901.53;;;6.21;79.22
64908;BME280;69061;52.236;5.188;2023-04-26T01:17:29;101908.38;;;6.22;78.88
64908;BME280;69061;52.236;5.188;2023-04-26T01:19:55;101904.63;;;6.23;79.16
64908;BME280;69061;52.236;5.188;2023-04-26T01:22:22;101905.72;;;6.22;79.21
64908;BME280;69061;52.236;5.188;2023-04-26T01:24:50;101899.97;;;6.20;80.03
64908;BME280;69061;52.236;5.188;2023-04-26T01:27:18;101907.56;;;6.22;81.02
64908;BME280;69061;52.236;5.188;2023-04-26T01:29:44;101904.47;;;6.20;79.21
64908;BME280;69061;52.236;5.188;2023-04-26T01:32:11;101908.66;;;6.21;78.40
64908;BME280;69061;52.236;5.188;2023-04-26T01:34:38;101907.44;;;6.18;79.90
64908;BME280;69061;52.236;5.188;2023-04-26T01:37:04;101911.13;;;6.17;78.99
64908;BME280;69061;52.236;5.188;2023-04-26T01:39:32;101911.72;;;6.14;80.44
64908;BME280;69061;52.236;5.188;2023-04-26T01:42:00;101909.41;;;6.13;80.90
64908;BME280;69061;52.236;5.188;2023-04-26T01:44:27;101902.88;;;6.10;79.65
64908;BME280;69061;52.236;5.188;2023-04-26T01:46:53;101902.88;;;6.10;80.06
64908;BME280;69061;52.236;5.188;2023-04-26T01:49:20;101900.06;;;6.06;79.16
64908;BME280;69061;52.236;5.188;2023-04-26T01:51:46;101897.25;;;6.03;79.17
64908;BME280;69061;52.236;5.188;2023-04-26T01:54:13;101897.56;;;6.01;80.08
64908;BME280;69061;52.236;5.188;2023-04-26T01:56:39;101891.03;;;5.99;79.06
64908;BME280;69061;52.236;5.188;2023-04-26T01:59:07;101888.69;;;5.97;79.30
64908;BME280;69061;52.236;5.188;2023-04-26T02:01:34;101882.28;;;5.89;79.58
64908;BME280;69061;52.236;5.188;2023-04-26T02:04:01;101893.44;;;5.86;78.89
64908;BME280;69061;52.236;5.188;2023-04-26T02:06:28;101893.25;;;5.83;78.27
64908;BME280;69061;52.236;5.188;2023-04-26T02:08:55;101895.44;;;5.81;77.82
64908;BME280;69061;52.236;5.188;2023-04-26T02:11:22;101900.53;;;5.77;77.99
64908;BME280;69061;52.236;5.188;2023-04-26T02:13:48;101906.25;;;5.70;77.82
64908;BME280;69061;52.236;5.188;2023-04-26T02:16:16;101902.34;;;5.68;78.45
64908;BME280;69061;52.236;5.188;2023-04-26T02:18:43;101901.38;;;5.64;78.27
64908;BME280;69061;52.236;5.188;2023-04-26T02:21:10;101891.25;;;5.57;77.88
64908;BME280;69061;52.236;5.188;2023-04-26T02:23:36;101907.28;;;5.61;82.31
64908;BME280;69061;52.236;5.188;2023-04-26T02:26:03;101902.34;;;5.68;83.24
64908;BME280;69061;52.236;5.188;2023-04-26T02:28:29;101903.41;;;5.67;79.37
64908;BME280;69061;52.236;5.188;2023-04-26T02:30:56;101897.50;;;5.61;79.36
64908;BME280;69061;52.236;5.188;2023-04-26T02:33:24;101911.75;;;5.60;81.81
64908;BME280;69061;52.236;5.188;2023-04-26T02:35:51;101904.16;;;5.59;80.91
64908;BME280;69061;52.236;5.188;2023-04-26T02:38:17;101904.00;;;5.55;79.32
64908;BME280;69061;52.236;5.188;2023-04-26T02:40:44;101905.78;;;5.46;79.17
64908;BME280;69061;52.236;5.188;2023-04-26T02:43:10;101902.31;;;5.36;79.43
64908;BME280;69061;52.236;5.188;2023-04-26T02:45:40;101900.59;;;5.32;78.12
64908;BME280;69061;52.236;5.188;2023-04-26T02:48:06;101901.97;;;5.29;78.07
64908;BME280;69061;52.236;5.188;2023-04-26T02:50:34;101903.44;;;5.21;77.61
64908;BME280;69061;52.236;5.188;2023-04-26T02:53:01;101897.53;;;5.16;77.65
64908;BME280;69061;52.236;5.188;2023-04-26T02:55:27;101897.34;;;5.12;78.39
64908;BME280;69061;52.236;5.188;2023-04-26T02:57:54;101894.22;;;5.10;78.41
64908;BME280;69061;52.236;5.188;2023-04-26T03:00:21;101884.25;;;5.07;78.13
64908;BME280;69061;52.236;5.188;2023-04-26T03:02:48;101897.94;;;5.09;82.86
64908;BME280;69061;52.236;5.188;2023-04-26T03:05:15;101890.09;;;5.18;84.02
64908;BME280;69061;52.236;5.188;2023-04-26T03:07:43;101891.19;;;5.17;80.25
64908;BME280;69061;52.236;5.188;2023-04-26T03:10:09;101889.13;;;5.14;79.14
64908;BME280;69061;52.236;5.188;2023-04-26T03:12:36;101888.47;;;5.08;78.47
64908;BME280;69061;52.236;5.188;2023-04-26T03:15:03;101887.31;;;5.00;78.31
64908;BME280;69061;52.236;5.188;2023-04-26T03:17:30;101886.84;;;4.98;82.16
64908;BME280;69061;52.236;5.188;2023-04-26T03:19:57;101889.94;;;5.00;81.52
64908;BME280;69061;52.236;5.188;2023-04-26T03:22:23;101878.28;;;4.93;79.90
64908;BME280;69061;52.236;5.188;2023-04-26T03:24:51;101887.25;;;4.92;80.48
64908;BME280;69061;52.236;5.188;2023-04-26T03:27:17;101890.50;;;4.88;79.56
64908;BME280;69061;52.236;5.188;2023-04-26T03:29:44;101887.34;;;4.86;78.67
64908;BME280;69061;52.236;5.188;2023-04-26T03:32:11;101887.47;;;4.81;78.22
64908;BME280;69061;52.236;5.188;2023-04-26T03:34:37;101889.34;;;4.81;78.18
64908;BME280;69061;52.236;5.188;2023-04-26T03:37:04;101886.50;;;4.77;80.42
64908;BME280;69061;52.236;5.188;2023-04-26T03:39:30;101885.25;;;4.75;78.51
64908;BME280;69061;52.236;5.188;2023-04-26T03:41:58;101875.31;;;4.71;78.11
64908;BME280;69061;52.236;5.188;2023-04-26T03:44:25;101888.97;;;4.74;78.22
64908;BME280;69061;52.236;5.188;2023-04-26T03:46:51;101885.63;;;4.68;78.32
64908;BME280;69061;52.236;5.188;2023-04-26T03:49:18;101867.91;;;4.60;79.50
64908;BME280;69061;52.236;5.188;2023-04-26T03:51:45;101878.13;;;4.61;79.34
64908;BME280;69061;52.236;5.188;2023-04-26T03:54:11;101882.84;;;4.64;82.51
64908;BME280;69061;52.236;5.188;2023-04-26T03:56:38;101881.25;;;4.77;86.76
64908;BME280;69061;52.236;5.188;2023-04-26T03:59:07;101886.28;;;4.87;85.70
64908;BME280;69061;52.236;5.188;2023-04-26T04:01:34;101878.38;;;4.87;81.79
64908;BME280;69061;52.236;5.188;2023-04-26T04:04:00;101888.44;;;4.85;81.40
64908;BME280;69061;52.236;5.188;2023-04-26T04:06:27;101886.09;;;4.84;81.71
64908;BME280;69061;52.236;5.188;2023-04-26T04:08:53;101886.81;;;4.76;79.79
64908;BME280;69061;52.236;5.188;2023-04-26T04:11:20;101879.19;;;4.74;79.50
64908;BME280;69061;52.236;5.188;2023-04-26T04:13:47;101884.78;;;4.72;79.43
64908;BME280;69061;52.236;5.188;2023-04-26T04:16:15;101877.75;;;4.68;81.47
64908;BME280;69061;52.236;5.188;2023-04-26T04:18:42;101881.94;;;4.69;79.34
64908;BME280;69061;52.236;5.188;2023-04-26T04:21:08;101871.09;;;4.70;80.56
64908;BME280;69061;52.236;5.188;2023-04-26T04:23:35;101873.56;;;4.67;80.01
64908;BME280;69061;52.236;5.188;2023-04-26T04:26:01;101881.75;;;4.65;79.74
64908;BME280;69061;52.236;5.188;2023-04-26T04:28:28;101888.28;;;4.68;85.32
64908;BME280;69061;52.236;5.188;2023-04-26T04:30:55;101883.28;;;4.80;83.92
64908;BME280;69061;52.236;5.188;2023-04-26T04:33:23;101882.19;;;4.81;80.71
64908;BME280;69061;52.236;5.188;2023-04-26T04:35:52;101883.88;;;4.77;79.46
64908;BME280;69061;52.236;5.188;2023-04-26T04:38:19;101881.25;;;4.77;81.50
64908;BME280;69061;52.236;5.188;2023-04-26T04:40:46;101886.41;;;4.82;81.20
64908;BME280;69061;52.236;5.188;2023-04-26T04:43:14;101889.09;;;4.91;81.75
64908;BME280;69061;52.236;5.188;2023-04-26T04:45:41;101889.88;;;4.92;79.90
64908;BME280;69061;52.236;5.188;2023-04-26T04:48:07;101895.75;;;4.88;78.86
64908;BME280;69061;52.236;5.188;2023-04-26T04:50:37;101886.91;;;4.84;77.63
64908;BME280;69061;52.236;5.188;2023-04-26T04:53:04;101889.53;;;4.84;79.52
64908;BME280;69061;52.236;5.188;2023-04-26T04:55:30;101893.13;;;4.88;79.09
64908;BME280;69061;52.236;5.188;2023-04-26T04:57:58;101898.41;;;4.88;79.98
64908;BME280;69061;52.236;5.188;2023-04-26T05:00:24;101895.63;;;4.94;78.02
64908;BME280;69061;52.236;5.188;2023-04-26T05:02:51;101893.50;;;4.96;79.35
64908;BME280;69061;52.236;5.188;2023-04-26T05:05:18;101902.47;;;4.95;79.29
64908;BME280;69061;52.236;5.188;2023-04-26T05:07:46;101902.47;;;4.95;78.23
64908;BME280;69061;52.236;5.188;2023-04-26T05:10:12;101898.16;;;4.99;78.34
64908;BME280;69061;52.236;5.188;2023-04-26T05:12:39;101896.13;;;4.96;79.17
64908;BME280;69061;52.236;5.188;2023-04-26T05:15:06;101905.00;;;5.00;78.66
64908;BME280;69061;52.236;5.188;2023-04-26T05:17:33;101902.25;;;5.05;78.99
64908;BME280;69061;52.236;5.188;2023-04-26T05:20:00;101899.00;;;5.08;79.05
64908;BME280;69061;52.236;5.188;2023-04-26T05:22:30;101895.47;;;5.13;79.15
64908;BME280;69061;52.236;5.188;2023-04-26T05:25:00;101905.47;;;5.25;79.04
64908;BME280;69061;52.236;5.188;2023-04-26T05:27:27;101900.88;;;5.30;79.24
64908;BME280;69061;52.236;5.188;2023-04-26T05:29:53;101904.84;;;5.42;78.66
64908;BME280;69061;52.236;5.188;2023-04-26T05:32:20;101905.38;;;5.52;79.02
64908;BME280;69061;52.236;5.188;2023-04-26T05:34:46;101902.94;;;5.65;79.90
64908;BME280;69061;52.236;5.188;2023-04-26T05:37:13;101905.19;;;5.80;79.89
64908;BME280;69061;52.236;5.188;2023-04-26T05:39:41;101905.59;;;5.96;80.03
64908;BME280;69061;52.236;5.188;2023-04-26T05:42:09;101898.38;;;6.11;80.39
64908;BME280;69061;52.236;5.188;2023-04-26T05:44:36;101901.09;;;6.28;79.93
64908;BME280;69061;52.236;5.188;2023-04-26T05:47:02;101898.94;;;6.39;79.44
64908;BME280;69061;52.236;5.188;2023-04-26T05:49:29;101903.91;;;6.49;80.17
64908;BME280;69061;52.236;5.188;2023-04-26T05:51:57;101908.28;;;6.63;79.86
64908;BME280;69061;52.236;5.188;2023-04-26T05:54:24;101905.22;;;6.78;79.60
64908;BME280;69061;52.236;5.188;2023-04-26T05:56:51;101920.16;;;6.91;80.90
64908;BME280;69061;52.236;5.188;2023-04-26T05:59:18;101919.53;;;7.12;80.97
64908;BME280;69061;52.236;5.188;2023-04-26T06:01:45;101924.19;;;7.33;82.99
64908;BME280;69061;52.236;5.188;2023-04-26T06:04:11;101919.16;;;7.57;82.28
64908;BME280;69061;52.236;5.188;2023-04-26T06:06:38;101923.47;;;7.80;83.15
64908;BME280;69061;52.236;5.188;2023-04-26T06:09:04;101919.34;;;8.00;80.82
64908;BME280;69061;52.236;5.188;2023-04-26T06:11:31;101922.44;;;8.11;79.93
64908;BME280;69061;52.236;5.188;2023-04-26T06:13:58;101927.66;;;8.19;78.79
64908;BME280;69061;52.236;5.188;2023-04-26T06:16:25;101913.78;;;8.22;79.03
64908;BME280;69061;52.236;5.188;2023-04-26T06:18:52;101914.53;;;8.32;79.59
64908;BME280;69061;52.236;5.188;2023-04-26T06:21:18;101917.13;;;8.40;79.41
64908;BME280;69061;52.236;5.188;2023-04-26T06:23:45;101914.94;;;8.51;78.16
64908;BME280;69061;52.236;5.188;2023-04-26T06:26:12;101924.88;;;8.54;79.24
64908;BME280;69061;52.236;5.188;2023-04-26T06:28:38;101926.50;;;8.68;77.86
64908;BME280;69061;52.236;5.188;2023-04-26T06:31:05;101934.06;;;8.78;78.38
64908;BME280;69061;52.236;5.188;2023-04-26T06:33:32;101939.44;;;8.90;75.20
64908;BME280;69061;52.236;5.188;2023-04-26T06:35:59;101940.69;;;8.93;73.90
64908;BME280;69061;52.236;5.188;2023-04-26T06:38:26;101936.06;;;9.02;75.28
64908;BME280;69061;52.236;5.188;2023-04-26T06:40:52;101940.47;;;9.19;74.87
64908;BME280;69061;52.236;5.188;2023-04-26T06:43:19;101931.66;;;9.27;72.41
64908;BME280;69061;52.236;5.188;2023-04-26T06:45:45;101934.53;;;9.35;71.33
64908;BME280;69061;52.236;5.188;2023-04-26T06:48:12;101934.59;;;9.47;72.01
64908;BME280;69061;52.236;5.188;2023-04-26T06:50:39;101930.44;;;9.58;69.25
64908;BME280;69061;52.236;5.188;2023-04-26T06:53:06;101933.56;;;9.73;71.17
64908;BME280;69061;52.236;5.188;2023-04-26T06:55:33;101939.66;;;9.86;70.02
64908;BME280;69061;52.236;5.188;2023-04-26T06:58:00;101940.00;;;9.97;69.74
64908;BME280;69061;52.236;5.188;2023-04-26T07:00:26;101949.06;;;10.08;68.36
64908;BME280;69061;52.236;5.188;2023-04-26T07:02:54;101949.66;;;10.14;68.48
64908;BME280;69061;52.236;5.188;2023-04-26T07:05:21;101950.63;;;10.21;67.23
64908;BME280;69061;52.236;5.188;2023-04-26T07:07:49;101945.88;;;10.27;68.29
64908;BME280;69061;52.236;5.188;2023-04-26T07:10:15;101950.78;;;10.37;66.70
64908;BME280;69061;52.236;5.188;2023-04-26T07:12:42;101941.34;;;10.40;68.61
64908;BME280;69061;52.236;5.188;2023-04-26T07:15:09;101940.03;;;10.46;66.09
64908;BME280;69061;52.236;5.188;2023-04-26T07:17:36;101947.88;;;10.55;68.34
64908;BME280;69061;52.236;5.188;2023-04-26T07:20:03;101937.13;;;10.64;67.20
64908;BME280;69061;52.236;5.188;2023-04-26T07:22:30;101936.22;;;10.72;64.04
64908;BME280;69061;52.236;5.188;2023-04-26T07:24:58;101932.88;;;10.75;62.33
64908;BME280;69061;52.236;5.188;2023-04-26T07:27:24;101931.09;;;10.79;63.95
64908;BME280;69061;52.236;5.188;2023-04-26T07:29:52;101939.53;;;10.81;63.67
64908;BME280;69061;52.236;5.188;2023-04-26T07:32:20;101938.16;;;10.87;62.52
64908;BME280;69061;52.236;5.188;2023-04-26T07:34:46;101936.72;;;10.90;64.23
64908;BME280;69061;52.236;5.188;2023-04-26T07:37:13;101941.47;;;10.97;62.94
64908;BME280;69061;52.236;5.188;2023-04-26T07:39:40;101944.25;;;11.00;62.36
64908;BME280;69061;52.236;5.188;2023-04-26T07:42:08;101947.66;;;11.01;60.65
64908;BME280;69061;52.236;5.188;2023-04-26T07:44:34;101949.56;;;11.00;62.16
64908;BME280;69061;52.236;5.188;2023-04-26T07:47:01;101947.13;;;10.95;60.74
64908;BME280;69061;52.236;5.188;2023-04-26T07:49:27;101952.69;;;10.90;60.51
64908;BME280;69061;52.236;5.188;2023-04-26T07:51:54;101956.69;;;10.84;60.20
64908;BME280;69061;52.236;5.188;2023-04-26T07:54:22;101955.25;;;10.74;59.83
64908;BME280;69061;52.236;5.188;2023-04-26T07:56:48;101959.94;;;10.65;61.54
64908;BME280;69061;52.236;5.188;2023-04-26T07:59:16;101965.59;;;10.63;63.47
64908;BME280;69061;52.236;5.188;2023-04-26T08:01:43;101975.44;;;10.63;62.68
64908;BME280;69061;52.236;5.188;2023-04-26T08:04:09;101970.56;;;10.52;61.17
64908;BME280;69061;52.236;5.188;2023-04-26T08:06:36;101963.38;;;10.40;61.22
64908;BME280;69061;52.236;5.188;2023-04-26T08:09:03;101977.47;;;10.41;63.41
64908;BME280;69061;52.236;5.188;2023-04-26T08:11:30;101971.03;;;10.42;62.04
64908;BME280;69061;52.236;5.188;2023-04-26T08:13:56;101978.56;;;10.40;62.75
64908;BME280;69061;52.236;5.188;2023-04-26T08:16:24;101972.56;;;10.43;64.66
64908;BME280;69061;52.236;5.188;2023-04-26T08:18:51;101970.38;;;10.45;63.61
64908;BME280;69061;52.236;5.188;2023-04-26T08:21:18;101971.94;;;10.46;61.71
64908;BME280;69061;52.236;5.188;2023-04-26T08:23:45;101968.81;;;10.44;61.38
64908;BME280;69061;52.236;5.188;2023-04-26T08:26:12;101967.25;;;10.43;60.29
64908;BME280;69061;52.236;5.188;2023-04-26T08:28:38;101966.50;;;10.42;62.16
64908;BME280;69061;52.236;5.188;2023-04-26T08:31:05;101965.06;;;10.45;60.23
64908;BME280;69061;52.236;5.188;2023-04-26T08:33:33;101956.19;;;10.41;60.43
64908;BME280;69061;52.236;5.188;2023-04-26T08:35:59;101963.84;;;10.42;62.47
64908;BME280;69061;52.236;5.188;2023-04-26T08:38:26;101968.59;;;10.49;59.92
64908;BME280;69061;52.236;5.188;2023-04-26T08:40:54;101962.59;;;10.52;58.98
64908;BME280;69061;52.236;5.188;2023-04-26T08:43:27;101964.28;;;10.57;60.67
64908;BME280;69061;52.236;5.188;2023-04-26T08:45:54;101963.72;;;10.64;59.65
64908;BME280;69061;52.236;5.188;2023-04-26T08:48:20;101967.25;;;10.68;58.02
64908;BME280;69061;52.236;5.188;2023-04-26T08:50:50;101962.56;;;10.77;57.45
64908;BME280;69061;52.236;5.188;2023-04-26T08:53:17;101967.00;;;10.85;58.62
64908;BME280;69061;52.236;5.188;2023-04-26T08:55:46;101955.78;;;10.92;54.90
64908;BME280;69061;52.236;5.188;2023-04-26T08:58:13;101961.72;;;11.01;55.87
64908;BME280;69061;52.236;5.188;2023-04-26T09:00:42;101959.38;;;11.12;54.87
64908;BME280;69061;52.236;5.188;2023-04-26T09:03:09;101955.31;;;11.31;55.93
64908;BME280;69061;52.236;5.188;2023-04-26T09:05:38;101959.41;;;11.56;54.45
64908;BME280;69061;52.236;5.188;2023-04-26T09:08:12;101958.06;;;11.78;53.83
64908;BME280;69061;52.236;5.188;2023-04-26T09:10:41;101956.84;;;11.92;52.23
64908;BME280;69061;52.236;5.188;2023-04-26T09:13:08;101956.09;;;11.91;51.22
64908;BME280;69061;52.236;5.188;2023-04-26T09:15:36;101959.19;;;11.93;51.05
64908;BME280;69061;52.236;5.188;2023-04-26T09:18:15;101956.78;;;11.88;51.92
64908;BME280;69061;52.236;5.188;2023-04-26T09:20:43;101956.78;;;11.88;52.46
64908;BME280;69061;52.236;5.188;2023-04-26T09:23:12;101963.16;;;12.00;52.79
64908;BME280;69061;52.236;5.188;2023-04-26T09:25:40;101965.56;;;12.05;51.13
64908;BME280;69061;52.236;5.188;2023-04-26T09:28:19;101965.66;;;12.08;52.83
64908;BME280;69061;52.236;5.188;2023-04-26T09:30:46;101967.47;;;12.04;51.26
64908;BME280;69061;52.236;5.188;2023-04-26T09:33:13;101963.94;;;12.00;52.75
64908;BME280;69061;52.236;5.188;2023-04-26T09:35:41;101975.47;;;12.04;52.06
64908;BME280;69061;52.236;5.188;2023-04-26T09:38:09;101972.69;;;12.01;52.00
64908;BME280;69061;52.236;5.188;2023-04-26T09:40:40;101963.84;;;11.96;53.37
64908;BME280;69061;52.236;5.188;2023-04-26T09:43:08;101965.72;;;11.96;53.45
64908;BME280;69061;52.236;5.188;2023-04-26T09:45:43;101972.06;;;11.91;52.36
64908;BME280;69061;52.236;5.188;2023-04-26T09:48:15;101972.59;;;11.97;52.64
64908;BME280;69061;52.236;5.188;2023-04-26T09:50:42;101973.41;;;11.98;54.06
64908;BME280;69061;52.236;5.188;2023-04-26T09:53:10;101970.81;;;12.01;54.65
64908;BME280;69061;52.236;5.188;2023-04-26T09:55:36;101971.41;;;12.10;54.32
64908;BME280;69061;52.236;5.188;2023-04-26T09:58:10;101969.78;;;12.22;55.21
64908;BME280;69061;52.236;5.188;2023-04-26T10:00:39;101969.59;;;12.30;53.01
64908;BME280;69061;52.236;5.188;2023-04-26T10:03:07;101970.44;;;12.35;52.21
64908;BME280;69061;52.236;5.188;2023-04-26T10:05:36;101963.50;;;12.30;51.33
64908;BME280;69061;52.236;5.188;2023-04-26T10:08:04;101958.47;;;12.28;50.59
64908;BME280;69061;52.236;5.188;2023-04-26T10:10:31;101957.03;;;12.31;50.85
64908;BME280;69061;52.236;5.188;2023-04-26T10:12:58;101962.88;;;12.37;50.18
64908;BME280;69061;52.236;5.188;2023-04-26T10:15:27;101954.94;;;12.40;49.83
64908;BME280;69061;52.236;5.188;2023-04-26T10:17:54;101965.19;;;12.38;49.91
64908;BME280;69061;52.236;5.188;2023-04-26T10:20:21;101963.38;;;12.42;50.49
64908;BME280;69061;52.236;5.188;2023-04-26T10:22:52;101966.41;;;12.41;48.09
64908;BME280;69061;52.236;5.188;2023-04-26T10:25:20;101969.38;;;12.39;47.54
64908;BME280;69061;52.236;5.188;2023-04-26T10:27:50;101962.88;;;12.37;46.82
64908;BME280;69061;52.236;5.188;2023-04-26T10:30:20;101966.41;;;12.41;47.83
64908;BME280;69061;52.236;5.188;2023-04-26T10:33:17;101962.78;;;12.49;48.52
64908;BME280;69061;52.236;5.188;2023-04-26T10:36:00;101961.31;;;12.52;50.00
64908;BME280;69061;52.236;5.188;2023-04-26T10:38:28;101955.75;;;12.60;49.10
64908;BME280;69061;52.236;5.188;2023-04-26T10:40:55;101950.25;;;12.69;48.17
64908;BME280;69061;52.236;5.188;2023-04-26T10:43:28;101950.91;;;12.66;49.72
64908;BME280;69061;52.236;5.188;2023-04-26T10:45:56;101954.25;;;12.79;50.33
64908;BME280;69061;52.236;5.188;2023-04-26T10:48:29;101953.75;;;12.93;47.66
64908;BME280;69061;52.236;5.188;2023-04-26T10:51:08;101947.88;;;13.03;47.08
64908;BME280;69061;52.236;5.188;2023-04-26T10:53:57;101948.34;;;13.09;48.28
64908;BME280;69061;52.236;5.188;2023-04-26T10:56:49;101949.88;;;13.29;51.05
64908;BME280;69061;52.236;5.188;2023-04-26T10:59:19;101946.38;;;13.45;48.09
64908;BME280;69061;52.236;5.188;2023-04-26T11:01:46;101953.03;;;13.55;49.33
64908;BME280;69061;52.236;5.188;2023-04-26T11:04:13;101951.41;;;13.73;49.74
64908;BME280;69061;52.236;5.188;2023-04-26T11:06:47;101950.06;;;13.83;48.29
64908;BME280;69061;52.236;5.188;2023-04-26T11:09:32;101948.63;;;13.89;44.42
64908;BME280;69061;52.236;5.188;2023-04-26T11:11:59;101939.72;;;14.05;46.61
64908;BME280;69061;52.236;5.188;2023-04-26T11:14:27;101936.41;;;14.15;45.20
64908;BME280;69061;52.236;5.188;2023-04-26T11:16:54;101936.94;;;14.24;46.42
64908;BME280;69061;52.236;5.188;2023-04-26T11:19:22;101930.00;;;14.20;44.29
64908;BME280;69061;52.236;5.188;2023-04-26T11:21:49;101935.69;;;14.45;47.13
64908;BME280;69061;52.236;5.188;2023-04-26T11:24:15;101932.75;;;14.54;46.73
64908;BME280;69061;52.236;5.188;2023-04-26T11:26:50;101931.88;;;14.46;44.06
64908;BME280;69061;52.236;5.188;2023-04-26T11:29:17;101923.69;;;14.35;43.49
64908;BME280;69061;52.236;5.188;2023-04-26T11:31:50;101927.53;;;14.07;43.62
64908;BME280;69061;52.236;5.188;2023-04-26T11:34:19;101923.81;;;13.89;43.61
64908;BME280;69061;52.236;5.188;2023-04-26T11:36:49;101929.28;;;13.73;44.92
64908;BME280;69061;52.236;5.188;2023-04-26T11:39:15;101915.75;;;13.62;47.30
64908;BME280;69061;52.236;5.188;2023-04-26T11:41:44;101923.69;;;13.58;45.68
64908;BME280;69061;52.236;5.188;2023-04-26T11:44:11;101928.16;;;13.51;45.82
64908;BME280;69061;52.236;5.188;2023-04-26T11:46:37;101923.59;;;13.51;46.64
64908;BME280;69061;52.236;5.188;2023-04-26T11:49:06;101921.34;;;13.53;46.11
64908;BME280;69061;52.236;5.188;2023-04-26T11:51:33;101925.53;;;13.54;45.83
64908;BME280;69061;52.236;5.188;2023-04-26T11:54:01;101923.00;;;13.61;45.91
64908;BME280;69061;52.236;5.188;2023-04-26T11:56:28;101926.22;;;13.71;45.31
64908;BME280;69061;52.236;5.188;2023-04-26T11:58:55;101926.38;;;13.81;46.44
64908;BME280;69061;52.236;5.188;2023-04-26T12:01:24;101928.78;;;13.90;44.52
64908;BME280;69061;52.236;5.188;2023-04-26T12:03:51;101929.38;;;13.80;45.49
64908;BME280;69061;52.236;5.188;2023-04-26T12:06:18;101928.31;;;13.85;45.30
64908;BME280;69061;52.236;5.188;2023-04-26T12:08:48;101929.44;;;13.84;46.51
64908;BME280;69061;52.236;5.188;2023-04-26T12:11:16;101937.84;;;13.82;46.32
64908;BME280;69061;52.236;5.188;2023-04-26T12:13:44;101934.56;;;13.69;47.19
64908;BME280;69061;52.236;5.188;2023-04-26T12:16:12;101938.88;;;13.54;46.40
64908;BME280;69061;52.236;5.188;2023-04-26T12:18:39;101933.13;;;13.32;45.95
64908;BME280;69061;52.236;5.188;2023-04-26T12:21:06;101935.97;;;13.20;47.71
64908;BME280;69061;52.236;5.188;2023-04-26T12:23:36;101941.19;;;13.13;51.51
64908;BME280;69061;52.236;5.188;2023-04-26T12:26:04;101944.84;;;13.05;48.33
64908;BME280;69061;52.236;5.188;2023-04-26T12:28:33;101948.06;;;12.94;49.58
64908;BME280;69061;52.236;5.188;2023-04-26T12:30:59;101946.66;;;12.81;50.81
64908;BME280;69061;52.236;5.188;2023-04-26T12:33:28;101955.94;;;12.87;51.54
64908;BME280;69061;52.236;5.188;2023-04-26T12:35:55;101959.00;;;12.89;51.01
64908;BME280;69061;52.236;5.188;2023-04-26T12:38:24;101959.19;;;12.96;51.97
64908;BME280;69061;52.236;5.188;2023-04-26T12:40:51;101949.25;;;12.97;51.69
64908;BME280;69061;52.236;5.188;2023-04-26T12:43:17;101951.56;;;12.98;50.23
64908;BME280;69061;52.236;5.188;2023-04-26T12:45:49;101940.78;;;12.91;50.30
64908;BME280;69061;52.236;5.188;2023-04-26T12:48:16;101938.72;;;12.85;50.32
64908;BME280;69061;52.236;5.188;2023-04-26T12:50:42;101946.50;;;12.93;50.15
64908;BME280;69061;52.236;5.188;2023-04-26T12:53:10;101936.28;;;12.95;51.14
64908;BME280;69061;52.236;5.188;2023-04-26T12:55:36;101943.16;;;12.96;49.14
64908;BME280;69061;52.236;5.188;2023-04-26T12:58:03;101942.59;;;13.07;51.56